UHSS

Yuzhno-Sakhalinsk Airport

Yuzhno-Sakhalinsk, Russian Federation
TAF UHSS 181100Z 1812/1918 18003MPS 5000 -SHRA BR BKN004 BKN015CB TEMPO 1812/1817 1000 BR BKN002 BKN015CB BECMG 1817/1819 0300 FG BKN002 BKN011CB BECMG 1822/1824 5000 BR BKN004 BKN015CB BECMG 1902/1904 9999 NSW BKN015CB
Issued Valid From Valid To
Jun-18 @ 11:00 UTC
(2 hours ago)
Jun-18 @ 12:00 UTC
(an hour ago)
Jun-19 @ 18:00 UTC
(-1 days ago)
Jun-18 @ 12:00 to Jun-18 @ 17:00
TAF UHSS 181100Z 1812/1918 18003MPS 5000 -SHRA BR BKN004 BKN015CB
Wind Visibility Clouds Conditions
180° at 6 knots 5,005 meters
  • Broken at 400' AGL
  • Broken at 1,500' AGL
  • Light Rain
  • Mist
Temporary Jun-18 @ 12:00 to Jun-18 @ 17:00
TEMPO 1812/1817 1000 BR BKN002 BKN015CB
Visibility Clouds Conditions
998 meters
  • Broken at 200' AGL
  • Broken at 1,500' AGL
  • Mist
Becoming Jun-18 @ 17:00 to Jun-18 @ 22:00
BECMG 1817/1819 0300 FG BKN002 BKN011CB
Wind Visibility Clouds Conditions
180° at 6 knots 306 meters
  • Broken at 200' AGL
  • Broken at 1,100' AGL
  • Fog
Becoming Jun-18 @ 22:00 to Jun-19 @ 02:00
BECMG 1822/1824 5000 BR BKN004 BKN015CB
Wind Visibility Clouds Conditions
180° at 6 knots 5,005 meters
  • Broken at 400' AGL
  • Broken at 1,500' AGL
  • Mist
Becoming Jun-19 @ 02:00 to Jun-19 @ 18:00
BECMG 1902/1904 9999 NSW BKN015CB
Wind Visibility Clouds Conditions
180° at 6 knots 10,000+ meters
  • Broken at 1,500' AGL
TAF UHSS 181100Z 1812/1918 18003MPS 5000 -SHRA BR BKN004 BKN015CB TEMPO 1812/1817 1000 BR BKN002 BKN015CB BECMG 1817/1819 0300 FG BKN002 BKN011CB BECMG 1822/1824 5000 BR BKN004 BKN015CB BECMG 1902/1904 9999 NSW BKN015CB
Issued Jun-18 @ 11:00 UTC
(2 hours ago)
Valid From Jun-18 @ 12:00 UTC
(an hour ago)
Valid To Jun-19 @ 18:00 UTC
(-1 days ago)
Jun-18 @ 12:00 - Jun-18 @ 17:00
Wind Visibility
180° at 6 knots 5,005 meters
Clouds
  • Broken at 400' AGL
  • Broken at 1,500' AGL
Conditions
  • Light Rain
  • Mist
Temporary Jun-18 @ 12:00 - Jun-18 @ 17:00
Clouds
  • Broken at 200' AGL
  • Broken at 1,500' AGL
Conditions
  • Mist
Becoming Jun-18 @ 17:00 - Jun-18 @ 22:00
Wind Visibility
180° at 6 knots 306 meters
Clouds
  • Broken at 200' AGL
  • Broken at 1,100' AGL
Conditions
  • Fog
Becoming Jun-18 @ 22:00 - Jun-19 @ 02:00
Wind Visibility
180° at 6 knots 5,005 meters
Clouds
  • Broken at 400' AGL
  • Broken at 1,500' AGL
Conditions
  • Mist
Becoming Jun-19 @ 02:00 - Jun-19 @ 18:00
Wind Visibility
180° at 6 knots 10,000+ meters
Clouds
  • Broken at 1,500' AGL
Conditions